Weather at Muscat International Airport

Public forecast

Using degrees Celsius for public forecast. Weather courtesy of forecast.io.

Current aviation weather report (METAR) for Muscat International Airport

Retrieved 2020/10/29 06:50 UTC (29 minutes ago):

OOMS 290650Z 34009KT CAVOK 33/08 Q1015 NOSIG

Aviation forecast (TAF) for Muscat International Airport

Retrieved 2020/10/29 06:00 UTC (1 hour ago):

TAF OOMS 290500Z 2906/3012 36012KT 8000 NSC BECMG 2916/2918 25008KT BECMG 3006/3008 34012KT